Time;durP1;ratioP1;P1;durP2;ratioP2;P2;SDS_P1;SDS_P2;PMS_P1;PMS_P2;Temp;Humidity;BMP_temperature;BMP_pressure;BME280_temperature;BME280_humidity;BME280_pressure;Samples;Min_cycle;Max_cycle;Signal;HPM_P1;HPM_P2
2022/01/17 00:00:21;;;;;;;24.02;2.70;;;5.50;99.90;;;;;;6148968;23;20429;-79
2022/01/17 00:02:49;;;;;;;21.20;2.88;;;5.50;99.90;;;;;;6122993;23;20022;-77
2022/01/17 00:05:15;;;;;;;20.33;2.40;;;5.60;99.90;;;;;;6149024;23;20014;-79
2022/01/17 00:07:41;;;;;;;25.20;3.17;;;5.50;99.90;;;;;;6148864;23;20100;-80
2022/01/17 00:10:08;;;;;;;20.60;2.70;;;5.60;99.90;;;;;;6148640;23;20088;-80
2022/01/17 00:12:38;;;;;;;19.15;2.70;;;5.60;99.90;;;;;;6150609;23;20066;-80
2022/01/17 00:15:13;;;;;;;20.38;3.10;;;5.60;99.90;;;;;;6125740;23;20087;-80
2022/01/17 00:17:41;;;;;;;18.23;2.50;;;5.60;99.90;;;;;;6150061;23;20052;-79
2022/01/17 00:20:10;;;;;;;24.13;3.03;;;5.60;99.90;;;;;;6149164;23;20163;-80
2022/01/17 00:22:39;;;;;;;21.90;2.90;;;5.60;99.90;;;;;;6148344;23;20049;-79
2022/01/17 00:25:07;;;;;;;22.08;2.60;;;5.60;99.90;;;;;;6173897;23;20013;-79
2022/01/17 00:27:33;;;;;;;22.02;2.47;;;5.60;99.90;;;;;;6149006;23;20155;-78
2022/01/17 00:30:02;;;;;;;24.52;3.75;;;5.60;99.90;;;;;;6123608;23;20045;-79
2022/01/17 00:32:28;;;;;;;22.67;3.10;;;5.60;99.90;;;;;;6149813;23;20017;-79
2022/01/17 00:34:53;;;;;;;24.02;2.58;;;5.60;99.90;;;;;;6175139;23;20051;-81
2022/01/17 00:37:19;;;;;;;18.48;2.83;;;5.60;99.90;;;;;;6151771;23;20067;-81
2022/01/17 00:39:44;;;;;;;17.98;2.35;;;5.60;99.90;;;;;;6150981;23;20075;-80
2022/01/17 00:42:10;;;;;;;20.63;2.70;;;5.60;99.90;;;;;;6152466;23;20021;-81
2022/01/17 00:44:36;;;;;;;21.10;3.17;;;5.50;99.90;;;;;;6151339;23;20022;-79
2022/01/17 00:47:01;;;;;;;24.02;2.50;;;5.60;99.90;;;;;;6150131;23;20032;-78
2022/01/17 00:49:27;;;;;;;23.13;2.67;;;5.50;99.90;;;;;;6151324;23;20016;-77
2022/01/17 00:51:53;;;;;;;32.67;3.15;;;5.50;99.90;;;;;;6151350;23;20017;-79
2022/01/17 00:54:19;;;;;;;15.55;2.20;;;5.50;99.90;;;;;;6150607;23;20382;-78
2022/01/17 00:56:45;;;;;;;20.45;2.67;;;5.70;99.90;;;;;;6151591;23;20009;-79
2022/01/17 00:59:11;;;;;;;22.80;2.58;;;5.50;99.90;;;;;;6151382;23;20061;-80
2022/01/17 01:01:36;;;;;;;28.27;3.40;;;5.50;99.90;;;;;;6151258;23;20013;-79
2022/01/17 01:04:02;;;;;;;25.35;3.25;;;5.40;99.90;;;;;;6152177;23;20084;-78
2022/01/17 01:06:30;;;;;;;26.90;2.88;;;5.30;99.90;;;;;;6127893;23;20009;-79
2022/01/17 01:08:56;;;;;;;31.60;3.50;;;5.30;99.90;;;;;;6152164;23;20480;-79
2022/01/17 01:11:22;;;;;;;17.63;2.33;;;5.30;99.90;;;;;;6152857;23;20037;-81
2022/01/17 01:13:48;;;;;;;23.05;2.88;;;5.20;99.90;;;;;;6151773;23;20077;-81
2022/01/17 01:19:06;;;;;;;22.25;2.72;;;5.30;99.90;;;;;;6151984;23;20031;-80
2022/01/17 01:29:20;;;;;;;19.60;2.55;;;5.40;99.90;;;;;;6152330;23;20442;-79
2022/01/17 01:32:02;;;;;;;26.05;2.83;;;5.40;99.90;;;;;;6154501;23;20017;-79
2022/01/17 01:34:36;;;;;;;19.95;1.95;;;5.40;99.90;;;;;;6152602;23;20502;-80
2022/01/17 01:37:03;;;;;;;16.27;2.28;;;5.40;99.90;;;;;;6127887;23;20020;-80
2022/01/17 01:39:29;;;;;;;24.00;2.80;;;5.40;99.90;;;;;;6151681;23;20089;-81
2022/01/17 01:41:54;;;;;;;18.92;2.63;;;5.40;99.90;;;;;;6151920;23;20650;-78
2022/01/17 01:44:23;;;;;;;28.05;2.67;;;5.30;99.90;;;;;;6151791;23;20036;-81
2022/01/17 01:46:52;;;;;;;19.42;3.00;;;5.30;99.90;;;;;;6152399;23;20319;-81
2022/01/17 01:49:19;;;;;;;19.15;3.13;;;5.30;99.90;;;;;;6151877;23;20048;-79
2022/01/17 01:51:46;;;;;;;14.48;2.65;;;5.40;99.90;;;;;;6152161;23;20075;-81
2022/01/17 01:54:13;;;;;;;22.88;2.72;;;5.30;99.90;;;;;;6127228;23;20093;-79
2022/01/17 01:56:43;;;;;;;23.85;2.72;;;5.30;99.90;;;;;;6152420;23;20092;-78
2022/01/17 01:59:09;;;;;;;34.58;3.28;;;5.30;99.90;;;;;;6151980;23;20021;-79
2022/01/17 02:01:35;;;;;;;17.85;2.33;;;5.30;99.90;;;;;;6152076;23;20118;-79
2022/01/17 02:04:01;;;;;;;24.40;2.60;;;5.30;99.90;;;;;;6151918;23;20105;-79
2022/01/17 02:06:27;;;;;;;23.13;2.00;;;5.20;99.90;;;;;;6128371;23;20020;-80
2022/01/17 02:08:53;;;;;;;21.60;2.20;;;5.30;99.90;;;;;;6153889;23;20010;-79
2022/01/17 02:11:18;;;;;;;18.92;2.33;;;5.20;99.90;;;;;;6152957;23;20017;-79
2022/01/17 02:13:46;;;;;;;18.52;2.50;;;5.20;99.90;;;;;;6152343;23;20353;-78
2022/01/17 02:16:14;;;;;;;26.95;3.60;;;5.20;99.90;;;;;;6152555;23;20437;-79
2022/01/17 02:18:42;;;;;;;20.45;2.50;;;5.20;99.90;;;;;;6151740;23;20049;-82
2022/01/17 02:23:47;;;;;;;;;;;5.10;99.90;;;;;;6151715;23;20057;-80
2022/01/17 02:26:14;;;;;;;21.88;2.20;;;5.10;99.90;;;;;;6152378;23;20004;-79
2022/01/17 02:28:48;;;;;;;30.77;3.25;;;5.00;99.90;;;;;;6127583;23;20036;-78
2022/01/17 02:31:15;;;;;;;14.38;1.58;;;5.00;99.90;;;;;;6152634;23;20017;-79
2022/01/17 02:33:40;;;;;;;23.27;2.85;;;5.10;99.90;;;;;;6127562;23;20513;-80
2022/01/17 02:36:06;;;;;;;34.20;3.53;;;5.20;99.90;;;;;;6127197;23;20040;-80
2022/01/17 02:38:32;;;;;;;28.83;2.65;;;5.10;99.90;;;;;;6151927;23;20103;-78
2022/01/17 02:40:58;;;;;;;20.67;2.65;;;5.10;99.90;;;;;;6126702;23;20014;-80
2022/01/17 02:43:27;;;;;;;22.85;2.30;;;5.10;99.90;;;;;;6151970;23;20393;-78
2022/01/17 02:48:24;;;;;;;17.83;1.85;;;5.20;99.90;;;;;;6151987;23;20330;-80
2022/01/17 02:50:50;;;;;;;27.88;2.78;;;5.30;99.90;;;;;;6151529;23;20092;-78
2022/01/17 02:53:16;;;;;;;17.13;2.13;;;5.30;99.90;;;;;;6126848;23;20044;-80
2022/01/17 02:55:51;;;;;;;24.58;2.60;;;5.40;99.90;;;;;;6125588;23;20037;-81
2022/01/17 02:58:19;;;;;;;;;;;5.40;99.90;;;;;;6151387;23;20092;-81
2022/01/17 03:00:46;;;;;;;22.85;2.03;;;5.40;99.90;;;;;;6152062;23;19967;-79
2022/01/17 03:03:13;;;;;;;21.52;3.08;;;5.40;99.90;;;;;;6151273;23;20014;-79
2022/01/17 03:05:39;;;;;;;16.45;2.17;;;5.50;99.90;;;;;;6151472;23;20016;-77
2022/01/17 03:08:05;;;;;;;28.85;2.55;;;5.50;99.90;;;;;;6154004;23;20319;-79
2022/01/17 03:10:39;;;;;;;22.13;2.70;;;5.50;99.90;;;;;;6150760;23;20024;-79
2022/01/17 03:13:07;;;;;;;18.42;2.83;;;5.50;99.90;;;;;;6151720;23;20454;-79
2022/01/17 03:15:33;;;;;;;22.63;2.83;;;5.50;99.90;;;;;;6151221;23;20040;-80
2022/01/17 03:17:59;;;;;;;26.48;2.65;;;5.60;99.90;;;;;;6126171;23;20080;-79
2022/01/17 03:20:25;;;;;;;18.40;2.67;;;5.70;99.90;;;;;;6150800;23;20096;-78
2022/01/17 03:22:50;;;;;;;19.92;2.05;;;5.70;99.90;;;;;;6151350;23;20053;-79
2022/01/17 03:25:16;;;;;;;25.08;1.90;;;5.50;99.90;;;;;;6150909;23;20084;-80
2022/01/17 03:27:42;;;;;;;29.85;3.47;;;5.60;99.90;;;;;;6151302;23;20097;-79
2022/01/17 03:30:08;;;;;;;25.13;3.53;;;5.60;99.90;;;;;;6151990;23;20013;-78
2022/01/17 03:32:34;;;;;;;26.23;2.35;;;5.60;99.90;;;;;;6126465;23;20024;-78
2022/01/17 03:35:00;;;;;;;20.98;2.92;;;5.60;99.90;;;;;;6126390;23;20010;-80
2022/01/17 03:37:26;;;;;;;21.50;2.30;;;5.60;99.90;;;;;;6152695;23;20438;-79
2022/01/17 03:39:52;;;;;;;26.60;2.80;;;5.60;99.90;;;;;;6150305;23;20018;-79
2022/01/17 03:42:18;;;;;;;18.13;2.63;;;5.60;99.90;;;;;;6127366;23;20017;-80
2022/01/17 03:44:45;;;;;;;26.23;2.60;;;5.70;99.90;;;;;;6151654;23;20024;-80
2022/01/17 03:47:11;;;;;;;16.90;2.13;;;5.80;99.90;;;;;;6150897;23;20021;-79
2022/01/17 03:49:37;;;;;;;26.33;3.03;;;5.80;99.90;;;;;;6150965;23;20076;-79
2022/01/17 03:52:03;;;;;;;23.83;3.30;;;5.70;99.90;;;;;;6151104;23;20022;-81
2022/01/17 03:54:29;;;;;;;22.98;2.78;;;5.70;99.90;;;;;;6151080;23;20044;-81
2022/01/17 03:56:54;;;;;;;19.83;2.20;;;5.80;99.90;;;;;;6126848;23;20017;-78
2022/01/17 03:59:20;;;;;;;20.33;2.58;;;5.80;99.90;;;;;;6151489;23;20036;-81
2022/01/17 04:01:46;;;;;;;23.02;2.33;;;5.80;99.90;;;;;;6150526;23;20288;-81
2022/01/17 04:04:11;;;;;;;20.75;2.53;;;5.70;99.90;;;;;;6126318;23;20036;-79
2022/01/17 04:06:37;;;;;;;20.63;2.60;;;5.70;99.90;;;;;;6150661;23;20322;-78
2022/01/17 04:09:03;;;;;;;18.35;2.20;;;5.90;99.90;;;;;;6151080;23;20017;-79
2022/01/17 04:11:28;;;;;;;20.15;2.10;;;5.80;99.90;;;;;;6151734;23;20315;-80
2022/01/17 04:13:54;;;;;;;12.68;1.88;;;5.70;99.90;;;;;;6151615;23;20077;-78
2022/01/17 04:16:20;;;;;;;16.88;2.70;;;5.70;99.90;;;;;;6151508;23;20023;-78
2022/01/17 04:18:45;;;;;;;19.55;2.55;;;5.80;99.90;;;;;;6150949;23;20068;-81
2022/01/17 04:21:11;;;;;;;21.75;2.42;;;5.80;99.90;;;;;;6151021;23;20379;-80
2022/01/17 04:23:37;;;;;;;21.55;2.55;;;5.90;99.90;;;;;;6152107;23;20025;-79
2022/01/17 04:26:02;;;;;;;20.55;2.72;;;5.80;99.90;;;;;;6150712;23;20018;-80
2022/01/17 04:28:28;;;;;;;19.92;2.75;;;5.90;99.90;;;;;;6126907;23;20093;-78
2022/01/17 04:30:54;;;;;;;19.48;2.53;;;5.80;99.90;;;;;;6150951;23;20296;-81
2022/01/17 04:33:19;;;;;;;19.23;2.92;;;5.90;99.90;;;;;;6150603;23;20025;-78
2022/01/17 04:35:45;;;;;;;15.98;2.08;;;5.90;99.90;;;;;;6151206;23;20347;-81
2022/01/17 04:38:15;;;;;;;20.80;3.08;;;5.90;99.90;;;;;;6151776;23;20053;-78
2022/01/17 04:40:44;;;;;;;9.30;1.70;;;6.00;99.90;;;;;;6151510;23;20021;-80
2022/01/17 04:43:20;;;;;;;23.80;3.05;;;6.00;99.90;;;;;;6151966;23;20013;-81
2022/01/17 04:45:47;;;;;;;18.38;2.70;;;6.00;99.90;;;;;;6152367;23;20068;-78
2022/01/17 04:48:13;;;;;;;21.85;2.40;;;6.00;99.90;;;;;;6150856;23;20014;-78
2022/01/17 04:50:39;;;;;;;18.35;2.42;;;6.00;99.90;;;;;;6151724;23;20014;-79
2022/01/17 04:53:06;;;;;;;33.55;3.45;;;6.10;99.90;;;;;;6152067;23;20017;-78
2022/01/17 04:55:33;;;;;;;18.95;2.35;;;6.10;99.90;;;;;;6151475;23;20009;-81
2022/01/17 04:57:59;;;;;;;31.02;3.30;;;6.10;99.90;;;;;;6151423;23;20025;-81
2022/01/17 05:00:26;;;;;;;18.67;2.95;;;6.20;99.90;;;;;;6127481;23;20013;-79
2022/01/17 05:02:53;;;;;;;14.35;1.98;;;6.20;99.90;;;;;;6151353;23;20387;-81
2022/01/17 05:05:19;;;;;;;26.80;3.40;;;6.20;99.90;;;;;;6127208;23;20041;-79
2022/01/17 05:07:45;;;;;;;27.05;4.18;;;6.20;99.90;;;;;;6127356;23;20017;-78
2022/01/17 05:10:13;;;;;;;14.63;2.47;;;6.40;99.90;;;;;;6151621;23;20040;-80
2022/01/17 05:12:40;;;;;;;23.52;3.05;;;6.10;99.90;;;;;;6152030;23;20080;-80
2022/01/17 05:15:23;;;;;;;25.10;3.17;;;6.20;99.90;;;;;;6152728;23;20018;-81
2022/01/17 05:18:11;;;;;;;25.92;3.42;;;6.20;99.90;;;;;;6129238;23;20016;-81
2022/01/17 05:20:38;;;;;;;28.95;3.15;;;6.20;99.90;;;;;;6153384;23;20064;-80
2022/01/17 05:23:04;;;;;;;18.33;2.97;;;6.30;99.90;;;;;;6153487;23;20018;-81
2022/01/17 05:25:30;;;;;;;22.30;2.78;;;6.80;99.90;;;;;;6127266;23;20076;-80
2022/01/17 05:27:55;;;;;;;20.52;2.78;;;6.20;99.90;;;;;;6129218;23;20278;-80
2022/01/17 05:30:23;;;;;;;33.28;4.03;;;6.20;99.90;;;;;;6153951;23;20323;-80
2022/01/17 05:32:50;;;;;;;24.92;2.75;;;6.20;99.90;;;;;;6153121;23;20017;-78
2022/01/17 05:35:16;;;;;;;17.88;3.15;;;6.30;99.90;;;;;;6153187;23;20025;-80
2022/01/17 05:37:43;;;;;;;24.98;3.45;;;6.70;99.90;;;;;;6153513;23;20018;-78
2022/01/17 05:40:10;;;;;;;26.65;3.53;;;6.30;99.90;;;;;;6153204;23;20035;-80
2022/01/17 05:42:36;;;;;;;21.25;3.03;;;6.30;99.90;;;;;;6128890;23;20014;-78
2022/01/17 05:45:04;;;;;;;20.30;3.17;;;6.50;99.90;;;;;;6153602;23;20091;-79
2022/01/17 05:47:30;;;;;;;34.53;5.20;;;6.40;99.90;;;;;;6152835;23;20017;-81
2022/01/17 05:49:56;;;;;;;27.58;3.65;;;6.40;99.90;;;;;;6129178;23;20426;-80
2022/01/17 05:52:22;;;;;;;34.90;4.35;;;6.40;99.90;;;;;;6154012;23;20088;-79
2022/01/17 05:54:48;;;;;;;29.17;4.15;;;6.40;99.90;;;;;;6155514;23;20013;-81
2022/01/17 05:57:14;;;;;;;28.17;5.25;;;6.40;99.90;;;;;;6128362;23;20492;-81
2022/01/17 05:59:40;;;;;;;27.63;3.70;;;6.30;99.90;;;;;;6155517;23;20021;-81
2022/01/17 06:02:06;;;;;;;30.00;3.70;;;6.30;99.90;;;;;;6152295;23;20311;-78
2022/01/17 06:04:32;;;;;;;23.60;3.75;;;6.30;99.90;;;;;;6153381;23;20018;-79
2022/01/17 06:06:58;;;;;;;36.38;4.43;;;6.40;99.90;;;;;;6153898;23;20338;-80
2022/01/17 06:09:23;;;;;;;31.52;4.70;;;6.30;99.90;;;;;;6152741;23;20521;-79
2022/01/17 06:11:49;;;;;;;31.17;4.13;;;6.40;99.90;;;;;;6153716;23;20018;-78
2022/01/17 06:14:17;;;;;;;32.72;4.63;;;6.30;99.90;;;;;;6153853;23;20017;-79
2022/01/17 06:16:47;;;;;;;27.90;4.45;;;6.30;99.90;;;;;;6152887;23;20044;-80
2022/01/17 06:19:14;;;;;;;28.52;4.40;;;6.30;99.90;;;;;;6128433;23;20096;-80
2022/01/17 06:21:39;;;;;;;39.42;5.10;;;6.40;99.90;;;;;;6129321;23;20010;-78
2022/01/17 06:24:06;;;;;;;24.92;3.85;;;6.40;99.90;;;;;;6153112;23;20023;-78
2022/01/17 06:26:33;;;;;;;34.88;4.50;;;6.30;99.90;;;;;;6128788;23;20017;-79
2022/01/17 06:28:59;;;;;;;30.77;4.38;;;6.40;99.90;;;;;;6152443;23;20010;-79
2022/01/17 06:31:24;;;;;;;29.90;3.38;;;6.40;99.90;;;;;;6152545;23;20401;-79
2022/01/17 06:33:50;;;;;;;22.98;3.10;;;6.30;99.90;;;;;;6152578;23;20541;-80
2022/01/17 06:36:16;;;;;;;30.23;3.53;;;6.30;99.90;;;;;;6128429;23;20018;-79
2022/01/17 06:38:41;;;;;;;30.13;4.47;;;6.60;99.90;;;;;;6153670;23;20018;-80
2022/01/17 06:41:07;;;;;;;23.00;3.60;;;6.60;99.90;;;;;;6154030;23;20024;-80
2022/01/17 06:43:33;;;;;;;44.40;5.45;;;6.30;99.90;;;;;;6152584;23;20661;-80
2022/01/17 06:49:55;;;;;;;38.63;4.53;;;6.20;99.90;;;;;;5954140;24;20054;-78
2022/01/17 06:52:21;;;;;;;32.75;4.35;;;6.90;99.90;;;;;;5955710;24;20028;-78
2022/01/17 06:54:46;;;;;;;29.63;4.43;;;6.60;99.90;;;;;;5953727;24;20085;-80
2022/01/17 06:57:12;;;;;;;44.70;4.65;;;7.30;99.90;;;;;;5954119;24;20080;-81
2022/01/17 06:59:37;;;;;;;43.55;4.38;;;6.40;99.90;;;;;;5954801;24;20031;-77
2022/01/17 07:02:03;;;;;;;43.80;5.00;;;6.40;99.90;;;;;;5954165;24;20020;-78
2022/01/17 07:04:29;;;;;;;41.70;4.80;;;6.30;99.90;;;;;;5954419;24;20023;-79
2022/01/17 07:06:55;;;;;;;31.63;4.07;;;6.30;99.90;;;;;;5955708;24;20012;-81
2022/01/17 07:09:21;;;;;;;35.35;4.30;;;6.30;99.90;;;;;;5955047;24;20012;-79
2022/01/17 07:11:47;;;;;;;47.63;4.95;;;6.30;99.90;;;;;;5931685;24;20020;-78
2022/01/17 07:14:13;;;;;;;50.53;5.60;;;6.40;99.90;;;;;;5956075;24;20057;-80
2022/01/17 07:16:41;;;;;;;39.90;4.82;;;6.30;99.90;;;;;;5955176;24;20456;-78
2022/01/17 07:19:07;;;;;;;37.35;4.40;;;6.30;99.90;;;;;;5954436;24;20023;-81
2022/01/17 07:21:34;;;;;;;37.97;5.13;;;6.40;99.90;;;;;;5996684;23;20015;-81
2022/01/17 07:24:00;;;;;;;34.47;4.60;;;6.40;99.90;;;;;;6125942;23;20036;-82
2022/01/17 07:26:26;;;;;;;47.60;4.88;;;6.70;99.90;;;;;;6127459;23;20027;-81
2022/01/17 07:28:52;;;;;;;41.92;4.45;;;6.50;99.90;;;;;;6151729;23;20092;-77
2022/01/17 07:31:19;;;;;;;33.20;5.03;;;7.40;99.90;;;;;;6150637;23;20014;-78
2022/01/17 07:33:44;;;;;;;42.30;5.22;;;7.00;99.90;;;;;;6150867;23;20014;-78
2022/01/17 07:36:15;;;;;;;33.40;4.25;;;6.50;99.90;;;;;;6126611;23;20076;-81
2022/01/17 07:38:41;;;;;;;34.88;4.45;;;6.60;99.90;;;;;;6150672;23;20017;-79
2022/01/17 07:41:08;;;;;;;42.22;5.70;;;6.60;99.90;;;;;;6150684;23;20092;-79
2022/01/17 07:43:34;;;;;;;40.10;5.55;;;6.70;99.90;;;;;;6151934;23;20120;-77
2022/01/17 07:46:03;;;;;;;40.45;4.90;;;6.70;99.90;;;;;;6150331;23;20096;-79
2022/01/17 07:51:11;;;;;;;55.05;6.00;;;6.70;99.90;;;;;;6150669;23;20017;-79
2022/01/17 07:53:38;;;;;;;36.08;4.38;;;6.70;99.90;;;;;;6127289;23;20014;-81
2022/01/17 07:56:04;;;;;;;37.03;4.15;;;6.70;99.90;;;;;;6152715;23;20005;-78
2022/01/17 07:58:30;;;;;;;41.42;4.95;;;6.80;99.90;;;;;;6150896;23;20023;-78
2022/01/17 08:00:55;;;;;;;47.72;5.32;;;7.10;99.90;;;;;;6150223;23;20337;-76
2022/01/17 08:03:22;;;;;;;54.40;6.32;;;6.90;99.90;;;;;;6150773;23;20417;-77
2022/01/17 08:05:47;;;;;;;41.38;4.90;;;6.80;99.90;;;;;;6126416;23;20020;-77
2022/01/17 08:08:13;;;;;;;39.05;4.43;;;6.90;99.90;;;;;;6150830;23;20013;-79
2022/01/17 08:10:39;;;;;;;39.50;4.72;;;7.00;99.90;;;;;;6151242;23;20014;-77
2022/01/17 08:13:05;;;;;;;43.95;4.88;;;7.00;99.90;;;;;;6150093;23;20020;-78
2022/01/17 08:15:31;;;;;;;49.17;5.50;;;7.10;99.90;;;;;;6151896;23;20076;-78
2022/01/17 08:17:57;;;;;;;50.13;5.60;;;7.10;99.90;;;;;;6150519;23;20021;-79
2022/01/17 08:20:49;;;;;;;37.22;5.47;;;7.20;99.90;;;;;;6125584;23;20017;-81
2022/01/17 08:23:58;;;;;;;;;;;;;;;;;;;;;
2022/01/17 08:26:33;;;;;;;37.00;3.97;;;7.20;99.90;;;;;;6066598;23;20069;-80
2022/01/17 08:28:59;;;;;;;46.05;5.50;;;7.30;99.90;;;;;;6065305;23;20010;-78
2022/01/17 08:31:26;;;;;;;45.78;5.43;;;7.70;99.90;;;;;;6067729;23;20062;-82
2022/01/17 08:33:52;;;;;;;56.75;5.35;;;8.00;99.90;;;;;;6065602;23;20461;-82
2022/01/17 08:36:19;;;;;;;42.22;6.18;;;7.40;99.90;;;;;;6091493;23;20019;-82
2022/01/17 08:38:46;;;;;;;53.22;6.00;;;7.50;99.90;;;;;;6043959;23;20019;-82
2022/01/17 08:41:12;;;;;;;42.53;4.95;;;7.70;99.90;;;;;;6067642;23;20022;-82
2022/01/17 08:43:38;;;;;;;50.60;6.43;;;7.60;99.90;;;;;;6093065;23;20062;-82
2022/01/17 08:46:06;;;;;;;33.35;4.93;;;7.60;99.90;;;;;;6068261;23;20441;-82
2022/01/17 08:48:34;;;;;;;49.42;5.95;;;7.60;99.90;;;;;;6068115;23;20010;-82
2022/01/17 08:51:01;;;;;;;31.63;4.03;;;7.60;99.90;;;;;;6080549;23;20059;-82
2022/01/17 08:53:26;;;;;;;40.85;5.68;;;7.70;99.90;;;;;;6100934;23;20018;-82
2022/01/17 08:55:52;;;;;;;46.22;6.03;;;7.80;99.90;;;;;;6099181;23;20183;-82
2022/01/17 08:58:19;;;;;;;34.75;3.83;;;7.90;99.90;;;;;;6099838;23;20021;-82
2022/01/17 09:00:45;;;;;;;51.58;5.88;;;7.90;99.90;;;;;;6124595;23;20746;-82
2022/01/17 09:03:10;;;;;;;37.45;5.13;;;7.90;99.90;;;;;;6098280;23;20013;-82
2022/01/17 09:05:37;;;;;;;42.13;5.75;;;8.10;99.90;;;;;;6076881;23;20018;-82
2022/01/17 09:08:04;;;;;;;51.47;6.35;;;8.00;99.90;;;;;;6099880;23;20097;-82
2022/01/17 09:10:30;;;;;;;35.97;5.47;;;8.10;99.90;;;;;;6100184;23;20014;-82
2022/01/17 09:12:59;;;;;;;46.65;6.40;;;8.10;99.90;;;;;;6099966;23;20032;-82
2022/01/17 09:15:26;;;;;;;37.88;5.03;;;8.20;99.90;;;;;;6098151;23;20056;-82
2022/01/17 09:17:52;;;;;;;60.88;7.47;;;8.30;99.90;;;;;;6098625;23;20116;-81
2022/01/17 09:20:23;;;;;;;44.45;4.93;;;8.20;99.90;;;;;;6074171;23;20018;-83
2022/01/17 09:22:51;;;;;;;40.53;4.38;;;8.30;99.90;;;;;;6097867;23;20014;-82
2022/01/17 09:25:17;;;;;;;46.40;5.22;;;8.30;99.90;;;;;;6112804;23;20468;-82
2022/01/17 09:27:43;;;;;;;35.20;5.38;;;8.40;99.90;;;;;;6128245;23;20018;-83
2022/01/17 09:30:12;;;;;;;57.58;7.20;;;8.30;99.90;;;;;;6128656;23;20022;-83
2022/01/17 09:32:38;;;;;;;53.92;6.47;;;8.20;99.90;;;;;;6103585;23;20092;-81
2022/01/17 09:35:05;;;;;;;46.75;5.97;;;8.40;99.90;;;;;;6152803;23;20088;-81
2022/01/17 09:37:32;;;;;;;41.97;4.88;;;8.40;99.90;;;;;;6127238;23;20018;-85
2022/01/17 09:39:57;;;;;;;41.15;5.53;;;8.90;99.90;;;;;;6090752;23;20149;-82
2022/01/17 09:42:27;;;;;;;50.55;6.55;;;8.50;99.90;;;;;;6067924;23;20054;-82
2022/01/17 09:44:56;;;;;;;34.95;5.07;;;8.50;99.90;;;;;;6069150;23;20057;-84
2022/01/17 09:47:22;;;;;;;41.88;6.00;;;8.50;99.90;;;;;;6044702;23;20014;-79
2022/01/17 09:49:55;;;;;;;58.50;6.38;;;8.50;99.90;;;;;;6067303;23;20042;-81
2022/01/17 09:54:59;;;;;;;58.15;6.80;;;8.70;99.90;;;;;;6067643;23;20029;-83
2022/01/17 09:57:27;;;;;;;49.28;6.32;;;8.70;99.90;;;;;;6066675;23;20097;-79
2022/01/17 09:59:52;;;;;;;57.47;7.25;;;8.70;99.90;;;;;;6092356;23;20018;-80
2022/01/17 10:02:18;;;;;;;43.83;5.68;;;8.70;99.90;;;;;;6066482;23;20025;-79
2022/01/17 10:04:44;;;;;;;49.72;6.28;;;8.60;99.90;;;;;;6092073;23;20021;-81
2022/01/17 10:08:32;;;;;;;45.17;7.00;;;8.80;99.90;;;;;;6067411;23;20019;-83
2022/01/17 10:11:16;;;;;;;55.72;6.60;;;8.80;99.90;;;;;;6033848;23;20042;-84
2022/01/17 10:13:55;;;;;;;;;;;8.90;99.90;;;;;;6010136;23;20543;-83
2022/01/17 10:17:28;;;;;;;50.05;6.47;;;8.90;99.90;;;;;;6042898;23;19917;-81
2022/01/17 10:20:02;;;;;;;49.15;6.82;;;8.40;99.90;;;;;;6092234;23;20718;-81
2022/01/17 10:22:42;;;;;;;37.00;5.15;;;8.80;99.90;;;;;;6043720;23;20018;-85
2022/01/17 10:25:51;;;;;;;50.25;6.43;;;8.80;99.90;;;;;;6042594;23;20029;-81
2022/01/17 10:41:48;;;;;;;45.22;7.45;;;8.70;99.90;;;;;;5940199;23;20457;-83
2022/01/17 10:44:56;;;;;;;56.50;6.53;;;8.80;99.90;;;;;;6005143;23;20012;-82
2022/01/17 10:51:22;;;;;;;52.03;6.57;;;9.50;99.90;;;;;;5978456;24;20028;-84
2022/01/17 10:53:55;;;;;;;54.78;6.28;;;9.00;99.90;;;;;;5954933;24;20028;-82
2022/01/17 10:56:38;;;;;;;57.95;7.50;;;9.30;99.90;;;;;;5955117;23;20031;-84
2022/01/17 10:59:09;;;;;;;64.25;8.38;;;8.90;99.90;;;;;;5899285;24;20021;-83
2022/01/17 11:01:41;;;;;;;47.97;6.82;;;9.30;99.90;;;;;;5899626;24;20085;-85
2022/01/17 11:04:10;;;;;;;66.80;8.57;;;8.90;99.90;;;;;;5906741;24;20023;-84
2022/01/17 11:06:46;;;;;;;61.38;7.90;;;9.40;99.90;;;;;;5928510;24;20020;-84
2022/01/17 11:09:22;;;;;;;36.92;5.00;;;9.30;99.90;;;;;;5927721;23;20061;-83
2022/01/17 11:11:49;;;;;;;66.53;8.30;;;8.80;99.90;;;;;;6006405;23;20083;-83
2022/01/17 11:15:06;;;;;;;;;;;;;;;;;;;;;
2022/01/17 11:22:45;;;;;;;53.30;7.63;;;9.30;99.90;;;;;;5895129;24;20638;-80
2022/01/17 11:25:45;;;;;;;53.05;6.75;;;9.40;99.90;;;;;;5921765;24;20047;-84
2022/01/17 11:28:59;;;;;;;;;;;;;;;;;;;;;
2022/01/17 11:42:43;;;;;;;51.20;7.13;;;8.90;99.90;;;;;;5954087;24;20024;-84
2022/01/17 12:34:28;;;;;;;51.22;7.32;;;10.00;99.90;;;;;;6081350;22;5277214;-82
2022/01/17 12:37:20;;;;;;;67.32;8.98;;;9.40;99.90;;;;;;6285106;22;20030;-81
2022/01/17 12:39:48;;;;;;;45.05;6.78;;;9.80;99.90;;;;;;6255038;22;20070;-81
2022/01/17 12:42:17;;;;;;;55.15;7.80;;;9.40;99.90;;;;;;6260293;22;20037;-82
2022/01/17 12:44:56;;;;;;;44.90;6.45;;;10.30;99.90;;;;;;6260448;22;20042;-83
2022/01/17 12:47:38;;;;;;;56.05;8.10;;;9.30;99.90;;;;;;6222351;23;20012;-82
2022/01/17 12:50:11;;;;;;;66.78;8.88;;;9.10;99.90;;;;;;6248245;23;20016;-86
2022/01/17 12:52:51;;;;;;;53.92;6.90;;;9.30;99.90;;;;;;6218373;23;20099;-82
2022/01/17 12:55:17;;;;;;;58.53;8.40;;;9.40;99.90;;;;;;6195041;23;20019;-85
2022/01/17 12:57:44;;;;;;;65.30;7.75;;;10.00;99.90;;;;;;6218971;23;20084;-82
2022/01/17 13:00:22;;;;;;;53.05;7.85;;;10.20;99.90;;;;;;6166979;23;20008;-86
2022/01/17 13:02:52;;;;;;;40.10;6.22;;;9.30;99.90;;;;;;6192605;23;20020;-83
2022/01/17 13:05:24;;;;;;;48.15;7.32;;;9.60;99.90;;;;;;6192767;23;20019;-82
2022/01/17 13:07:50;;;;;;;63.35;9.50;;;9.20;99.90;;;;;;6167366;23;20083;-86
2022/01/17 13:10:37;;;;;;;85.57;11.07;;;9.70;99.90;;;;;;6167488;23;20183;-87
2022/01/17 13:13:15;;;;;;;60.35;9.10;;;9.30;99.90;;;;;;6166468;23;20013;-90
2022/01/17 13:15:58;;;;;;;56.60;7.85;;;9.30;99.90;;;;;;6186879;23;20595;-84
2022/01/17 13:18:29;;;;;;;60.50;8.60;;;9.20;99.90;;;;;;6199495;23;20055;-87
2022/01/17 13:20:56;;;;;;;70.05;8.77;;;9.70;99.90;;;;;;6191342;23;20050;-88
2022/01/17 13:23:46;;;;;;;81.38;10.05;;;10.10;99.90;;;;;;6241691;22;20064;-89
2022/01/17 13:26:14;;;;;;;82.20;10.43;;;9.20;99.90;;;;;;6253220;22;20063;-84
2022/01/17 13:28:46;;;;;;;69.93;9.18;;;9.80;99.90;;;;;;6253338;22;20386;-85
2022/01/17 13:31:22;;;;;;;53.22;7.75;;;9.00;99.90;;;;;;6253834;22;20018;-92
2022/01/17 13:34:09;;;;;;;69.05;8.25;;;9.30;99.90;;;;;;6252494;22;20060;-90
2022/01/17 13:36:37;;;;;;;56.15;8.43;;;9.20;99.90;;;;;;6252025;22;20015;-88
2022/01/17 13:39:28;;;;;;;53.10;7.95;;;9.20;99.90;;;;;;6276985;22;20011;-87
2022/01/17 13:42:34;;;;;;;59.10;8.43;;;9.20;99.90;;;;;;6279990;22;20043;-82
2022/01/17 13:50:08;;;;;;;62.03;8.50;;;8.30;99.90;;;;;;6063467;23;20155;-82
2022/01/17 13:52:36;;;;;;;59.63;8.88;;;8.90;99.90;;;;;;5904397;24;20184;-84
2022/01/17 13:59:28;;;;;;;67.22;8.88;;;8.50;99.90;;;;;;5949837;24;20035;-82
2022/01/17 14:16:55;;;;;;;51.63;7.68;;;9.00;99.90;;;;;;6280564;22;20030;-82
2022/01/17 14:20:02;;;;;;;68.70;10.18;;;9.00;99.90;;;;;;6251421;22;20021;-85
2022/01/17 14:22:55;;;;;;;42.53;6.47;;;9.00;99.90;;;;;;6120604;23;20118;-83
2022/01/17 14:25:23;;;;;;;39.78;5.65;;;8.20;99.90;;;;;;6121334;23;20490;-82
2022/01/17 14:28:02;;;;;;;39.58;5.43;;;9.10;99.90;;;;;;6120475;23;20102;-83
2022/01/17 14:30:44;;;;;;;50.20;6.72;;;10.10;99.90;;;;;;6072484;23;20665;-82
2022/01/17 14:33:25;;;;;;;41.85;6.18;;;8.90;99.90;;;;;;6091674;23;20022;-82
2022/01/17 14:36:13;;;;;;;47.25;6.45;;;8.30;99.90;;;;;;6067155;23;20045;-83
2022/01/17 14:39:07;;;;;;;52.90;6.40;;;8.80;99.90;;;;;;6067501;23;20025;-83
2022/01/17 14:41:38;;;;;;;38.55;5.82;;;8.20;99.90;;;;;;6069233;23;20014;-83
2022/01/17 14:44:13;;;;;;;54.28;5.72;;;8.70;99.90;;;;;;6068385;23;20078;-83
2022/01/17 14:47:06;;;;;;;57.72;7.60;;;8.20;99.90;;;;;;6092758;23;20018;-81
2022/01/17 14:49:41;;;;;;;44.90;6.93;;;8.70;99.90;;;;;;6067182;23;20188;-80
2022/01/17 15:04:27;;;;;;;44.50;7.30;;;8.50;99.90;;;;;;6093691;23;20025;-79
2022/01/17 15:06:53;;;;;;;53.67;7.05;;;8.30;99.90;;;;;;6094413;23;20010;-79
2022/01/17 15:09:19;;;;;;;67.65;8.50;;;8.30;99.90;;;;;;6093265;23;20016;-79
2022/01/17 15:11:45;;;;;;;54.30;7.93;;;8.40;99.90;;;;;;6094434;23;20281;-79
2022/01/17 15:14:10;;;;;;;56.95;7.65;;;8.30;99.90;;;;;;6070141;23;20093;-79
2022/01/17 15:16:38;;;;;;;45.90;6.80;;;8.30;99.90;;;;;;6094308;23;20014;-78
2022/01/17 15:19:04;;;;;;;59.22;7.25;;;8.40;99.90;;;;;;6118541;23;20022;-78
2022/01/17 15:21:30;;;;;;;46.10;6.93;;;8.30;99.90;;;;;;6094840;23;20033;-80
2022/01/17 15:23:57;;;;;;;67.55;9.55;;;8.30;99.90;;;;;;6093386;23;20033;-80
2022/01/17 15:26:24;;;;;;;59.90;7.78;;;8.30;99.90;;;;;;6120397;23;20049;-80
2022/01/17 15:28:50;;;;;;;58.75;8.25;;;8.20;99.90;;;;;;6096482;23;20014;-80